Time;durP1;ratioP1;P1;durP2;ratioP2;P2;SDS_P1;SDS_P2;PMS_P1;PMS_P2;Temp;Humidity;BMP_temperature;BMP_pressure;BME280_temperature;BME280_humidity;BME280_pressure;Samples;Min_cycle;Max_cycle;Signal;HPM_P1;HPM_P2
2021/04/10 00:01:22;;;;;;;0.10;0.10;;;;;;;;;;5061510;28;20211;-74
2021/04/10 00:03:48;;;;;;;0.10;0.10;;;;;;;;;;5062769;28;20205;-74
2021/04/10 00:06:13;;;;;;;0.10;0.10;;;;;;;;;;5062823;28;20404;-73
2021/04/10 00:08:39;;;;;;;0.10;0.10;;;;;;;;;;5051582;28;20199;-73
2021/04/10 00:11:05;;;;;;;0.10;0.10;;;;;;;;;;5050167;28;20200;-73
2021/04/10 00:13:31;;;;;;;0.10;0.10;;;;;;;;;;5063578;28;20201;-74
2021/04/10 00:15:57;;;;;;;0.10;0.10;;;;;;;;;;5062696;28;20212;-73
2021/04/10 00:18:23;;;;;;;0.10;0.10;;;;;;;;;;5063100;28;20228;-74
2021/04/10 00:20:49;;;;;;;0.10;0.10;;;;;;;;;;5063461;28;20235;-74
2021/04/10 00:23:14;;;;;;;0.10;0.10;;;;;;;;;;5052353;28;20236;-73
2021/04/10 00:25:40;;;;;;;0.10;0.10;;;;;;;;;;5056438;28;20202;-73
2021/04/10 00:28:06;;;;;;;0.10;0.10;;;;;;;;;;5061562;28;20451;-73
2021/04/10 00:30:33;;;;;;;0.10;0.10;;;;;;;;;;5056584;28;20225;-73
2021/04/10 00:32:58;;;;;;;0.10;0.10;;;;;;;;;;5054507;28;20246;-72
2021/04/10 00:35:24;;;;;;;0.30;0.30;;;;;;;;;;5057500;28;20419;-73
2021/04/10 00:37:50;;;;;;;0.10;0.10;;;;;;;;;;5062960;28;20220;-74
2021/04/10 00:40:16;;;;;;;0.10;0.10;;;;;;;;;;5059233;28;20513;-74
2021/04/10 00:42:42;;;;;;;0.10;0.10;;;;;;;;;;5058409;28;20215;-74
2021/04/10 00:45:09;;;;;;;0.20;0.20;;;;;;;;;;5063438;28;20212;-74
2021/04/10 00:47:35;;;;;;;0.10;0.10;;;;;;;;;;5062319;28;20399;-74
2021/04/10 00:50:01;;;;;;;0.10;0.10;;;;;;;;;;5052382;28;20213;-73
2021/04/10 00:52:28;;;;;;;0.20;0.20;;;;;;;;;;5058041;28;20240;-74
2021/04/10 00:54:54;;;;;;;0.13;0.13;;;;;;;;;;5045191;28;20501;-74
2021/04/10 00:57:19;;;;;;;0.10;0.10;;;;;;;;;;5060073;28;20271;-73
2021/04/10 00:59:46;;;;;;;0.10;0.10;;;;;;;;;;5046933;28;20221;-73
2021/04/10 01:02:12;;;;;;;0.20;0.20;;;;;;;;;;5048101;28;20206;-73
2021/04/10 01:04:39;;;;;;;0.10;0.10;;;;;;;;;;5062429;28;20200;-73
2021/04/10 01:07:05;;;;;;;0.10;0.10;;;;;;;;;;5063215;28;20263;-73
2021/04/10 01:09:31;;;;;;;0.10;0.10;;;;;;;;;;5056952;28;20202;-73
2021/04/10 01:12:03;;;;;;;0.10;0.10;;;;;;;;;;5062183;28;20209;-73
2021/04/10 01:14:36;;;;;;;0.10;0.10;;;;;;;;;;5058254;28;20266;-74
2021/04/10 01:17:04;;;;;;;0.10;0.10;;;;;;;;;;5063050;28;20208;-73
2021/04/10 01:19:43;;;;;;;0.10;0.10;;;;;;;;;;5062402;28;20216;-73
2021/04/10 01:22:14;;;;;;;0.17;0.17;;;;;;;;;;5051418;28;20241;-73
2021/04/10 01:24:42;;;;;;;0.10;0.10;;;;;;;;;;5052925;28;20502;-74
2021/04/10 01:27:22;;;;;;;0.10;0.10;;;;;;;;;;5066875;28;20212;-74
2021/04/10 01:29:50;;;;;;;0.10;0.10;;;;;;;;;;5066843;28;20238;-74
2021/04/10 01:32:17;;;;;;;0.10;0.10;;;;;;;;;;5059022;28;20492;-73
2021/04/10 01:34:45;;;;;;;0.10;0.10;;;;;;;;;;5051630;28;20547;-73
2021/04/10 01:37:12;;;;;;;0.10;0.10;;;;;;;;;;5058837;28;20212;-74
2021/04/10 01:39:38;;;;;;;0.17;0.17;;;;;;;;;;5060027;28;20224;-74
2021/04/10 01:42:06;;;;;;;0.10;0.10;;;;;;;;;;5061908;28;20212;-73
2021/04/10 01:44:32;;;;;;;0.20;0.20;;;;;;;;;;5061350;28;20361;-73
2021/04/10 01:46:59;;;;;;;0.10;0.10;;;;;;;;;;5063733;28;20219;-73
2021/04/10 01:49:26;;;;;;;0.20;0.20;;;;;;;;;;5063124;28;20199;-72
2021/04/10 01:51:51;;;;;;;0.20;0.20;;;;;;;;;;5064058;28;20208;-73
2021/04/10 01:54:18;;;;;;;0.20;0.20;;;;;;;;;;5066448;28;20215;-74
2021/04/10 01:56:44;;;;;;;0.10;0.10;;;;;;;;;;5066194;28;20479;-74
2021/04/10 01:59:12;;;;;;;0.10;0.10;;;;;;;;;;5066304;28;20216;-72
2021/04/10 02:01:39;;;;;;;0.10;0.10;;;;;;;;;;5066031;28;20295;-73
2021/04/10 02:04:06;;;;;;;0.10;0.10;;;;;;;;;;5062214;28;20496;-74
2021/04/10 02:06:32;;;;;;;0.17;0.17;;;;;;;;;;5059108;28;20208;-74
2021/04/10 02:08:58;;;;;;;0.10;0.10;;;;;;;;;;5053958;28;20228;-73
2021/04/10 02:11:25;;;;;;;0.10;0.10;;;;;;;;;;5059587;28;20207;-74
2021/04/10 02:13:51;;;;;;;0.20;0.20;;;;;;;;;;5065493;28;20321;-73
2021/04/10 02:16:17;;;;;;;0.10;0.10;;;;;;;;;;5062949;28;20380;-74
2021/04/10 02:18:43;;;;;;;0.10;0.10;;;;;;;;;;5057706;28;20224;-73
2021/04/10 02:21:10;;;;;;;0.17;0.17;;;;;;;;;;5059557;28;20250;-73
2021/04/10 02:23:38;;;;;;;0.10;0.10;;;;;;;;;;5059209;28;20247;-73
2021/04/10 02:26:04;;;;;;;0.10;0.10;;;;;;;;;;5047954;28;20439;-72
2021/04/10 02:28:30;;;;;;;0.20;0.20;;;;;;;;;;5065833;28;20262;-73
2021/04/10 02:30:57;;;;;;;0.13;0.13;;;;;;;;;;5065950;28;20226;-73
2021/04/10 02:33:26;;;;;;;0.20;0.20;;;;;;;;;;5055837;28;20203;-73
2021/04/10 02:35:53;;;;;;;0.10;0.10;;;;;;;;;;5056068;28;20208;-73
2021/04/10 02:38:20;;;;;;;0.10;0.10;;;;;;;;;;5059429;28;20246;-72
2021/04/10 02:40:48;;;;;;;0.10;0.10;;;;;;;;;;5053318;28;20215;-73
2021/04/10 02:43:21;;;;;;;0.20;0.20;;;;;;;;;;5065574;28;20497;-74
2021/04/10 02:45:48;;;;;;;0.10;0.10;;;;;;;;;;5065947;28;20463;-72
2021/04/10 02:48:20;;;;;;;0.20;0.20;;;;;;;;;;5065595;28;20458;-73
2021/04/10 02:50:47;;;;;;;0.17;0.17;;;;;;;;;;5062520;28;20208;-74
2021/04/10 02:53:13;;;;;;;0.10;0.10;;;;;;;;;;5065311;28;20203;-74
2021/04/10 02:55:43;;;;;;;0.10;0.10;;;;;;;;;;5063516;28;20203;-74
2021/04/10 02:58:10;;;;;;;0.20;0.20;;;;;;;;;;5054665;28;20426;-70
2021/04/10 03:00:37;;;;;;;0.13;0.13;;;;;;;;;;5050428;28;20208;-69
2021/04/10 03:03:03;;;;;;;0.10;0.10;;;;;;;;;;5054169;28;20287;-69
2021/04/10 03:05:29;;;;;;;0.10;0.10;;;;;;;;;;5063746;28;20368;-70
2021/04/10 03:07:56;;;;;;;0.10;0.10;;;;;;;;;;5048698;28;20212;-69
2021/04/10 03:10:22;;;;;;;0.10;0.10;;;;;;;;;;5049457;28;20205;-69
2021/04/10 03:12:48;;;;;;;0.17;0.17;;;;;;;;;;5064671;28;20207;-70
2021/04/10 03:15:15;;;;;;;0.20;0.20;;;;;;;;;;5064633;28;20226;-71
2021/04/10 03:17:41;;;;;;;0.10;0.10;;;;;;;;;;5064860;28;20279;-70
2021/04/10 03:20:10;;;;;;;0.20;0.20;;;;;;;;;;5064983;28;20229;-70
2021/04/10 03:22:36;;;;;;;0.10;0.10;;;;;;;;;;5064540;28;20283;-70
2021/04/10 03:25:02;;;;;;;0.10;0.10;;;;;;;;;;5060536;28;20201;-69
2021/04/10 03:27:29;;;;;;;0.10;0.10;;;;;;;;;;5053469;28;20205;-70
2021/04/10 03:29:56;;;;;;;0.17;0.17;;;;;;;;;;5057827;28;20204;-69
2021/04/10 03:32:21;;;;;;;0.10;0.10;;;;;;;;;;5061368;28;20204;-69
2021/04/10 03:34:47;;;;;;;0.13;0.13;;;;;;;;;;5055373;28;20268;-69
2021/04/10 03:37:13;;;;;;;0.10;0.10;;;;;;;;;;5060892;28;20207;-70
2021/04/10 03:39:39;;;;;;;0.13;0.13;;;;;;;;;;5061786;28;20448;-69
2021/04/10 03:42:07;;;;;;;0.20;0.20;;;;;;;;;;5063290;28;20201;-69
2021/04/10 03:44:33;;;;;;;0.10;0.10;;;;;;;;;;5063826;28;20204;-69
2021/04/10 03:46:59;;;;;;;0.10;0.10;;;;;;;;;;5060683;28;20203;-69
2021/04/10 03:49:25;;;;;;;0.10;0.10;;;;;;;;;;5060472;28;20269;-69
2021/04/10 03:51:51;;;;;;;0.10;0.10;;;;;;;;;;5064073;28;20490;-70
2021/04/10 03:54:17;;;;;;;0.10;0.10;;;;;;;;;;5064079;28;20339;-70
2021/04/10 03:56:43;;;;;;;0.10;0.10;;;;;;;;;;5060385;28;20220;-69
2021/04/10 03:59:08;;;;;;;0.10;0.10;;;;;;;;;;5063656;28;20265;-68
2021/04/10 04:01:34;;;;;;;0.10;0.10;;;;;;;;;;5060785;28;20226;-69
2021/04/10 04:04:01;;;;;;;0.20;0.20;;;;;;;;;;5057598;28;20414;-69
2021/04/10 04:06:26;;;;;;;0.10;0.10;;;;;;;;;;5063330;28;20207;-69
2021/04/10 04:08:52;;;;;;;0.10;0.10;;;;;;;;;;5063868;28;20222;-70
2021/04/10 04:11:18;;;;;;;0.20;0.20;;;;;;;;;;5057182;28;20234;-70
2021/04/10 04:13:43;;;;;;;0.10;0.10;;;;;;;;;;5059159;28;20203;-70
2021/04/10 04:16:09;;;;;;;0.17;0.17;;;;;;;;;;5063691;28;20286;-68
2021/04/10 04:18:35;;;;;;;0.10;0.10;;;;;;;;;;5063443;28;20231;-68
2021/04/10 04:21:01;;;;;;;0.20;0.20;;;;;;;;;;5063688;28;20214;-69
2021/04/10 04:23:27;;;;;;;0.10;0.10;;;;;;;;;;5050139;28;20242;-70
2021/04/10 04:25:53;;;;;;;0.17;0.17;;;;;;;;;;5063700;28;20210;-70
2021/04/10 04:28:18;;;;;;;0.10;0.10;;;;;;;;;;5063584;28;20439;-71
2021/04/10 04:30:44;;;;;;;0.13;0.13;;;;;;;;;;5054405;28;20227;-69
2021/04/10 04:33:10;;;;;;;0.10;0.10;;;;;;;;;;5061589;28;20207;-69
2021/04/10 04:35:36;;;;;;;0.10;0.10;;;;;;;;;;5049250;28;20222;-70
2021/04/10 04:38:02;;;;;;;0.10;0.10;;;;;;;;;;5055325;28;20214;-69
2021/04/10 04:40:28;;;;;;;0.10;0.10;;;;;;;;;;5056579;28;20216;-70
2021/04/10 04:42:54;;;;;;;0.10;0.10;;;;;;;;;;5063122;28;20503;-69
2021/04/10 04:45:19;;;;;;;0.20;0.20;;;;;;;;;;5063153;28;20253;-69
2021/04/10 04:47:45;;;;;;;0.10;0.10;;;;;;;;;;5063458;28;20387;-69
2021/04/10 04:50:11;;;;;;;0.10;0.10;;;;;;;;;;5063056;28;20367;-68
2021/04/10 04:52:37;;;;;;;0.20;0.20;;;;;;;;;;5061095;28;20206;-69
2021/04/10 04:55:04;;;;;;;0.20;0.20;;;;;;;;;;5056733;28;20215;-69
2021/04/10 04:57:30;;;;;;;0.10;0.10;;;;;;;;;;5062773;28;20510;-68
2021/04/10 04:59:55;;;;;;;0.10;0.10;;;;;;;;;;5059817;28;20229;-70
2021/04/10 05:02:21;;;;;;;0.10;0.10;;;;;;;;;;5065409;28;20207;-70
2021/04/10 05:04:47;;;;;;;0.10;0.10;;;;;;;;;;5060816;28;20263;-70
2021/04/10 05:07:13;;;;;;;0.10;0.10;;;;;;;;;;5067224;28;20204;-69
2021/04/10 05:09:38;;;;;;;0.10;0.10;;;;;;;;;;5067233;28;20203;-70
2021/04/10 05:12:06;;;;;;;0.10;0.10;;;;;;;;;;5067064;28;20219;-70
2021/04/10 05:14:32;;;;;;;0.10;0.10;;;;;;;;;;5060855;28;20231;-71
2021/04/10 05:16:57;;;;;;;0.10;0.10;;;;;;;;;;5065436;28;20214;-70
2021/04/10 05:19:23;;;;;;;0.20;0.20;;;;;;;;;;5065066;28;20238;-71
2021/04/10 05:21:49;;;;;;;0.20;0.20;;;;;;;;;;5066836;28;20216;-69
2021/04/10 05:24:14;;;;;;;0.20;0.20;;;;;;;;;;5054777;28;20213;-68
2021/04/10 05:26:40;;;;;;;0.10;0.10;;;;;;;;;;5062649;28;20391;-69
2021/04/10 05:29:07;;;;;;;0.10;0.10;;;;;;;;;;5049530;28;20405;-69
2021/04/10 05:31:32;;;;;;;0.10;0.10;;;;;;;;;;5065566;28;20223;-69
2021/04/10 05:33:58;;;;;;;0.17;0.17;;;;;;;;;;5066865;28;20204;-69
2021/04/10 05:36:24;;;;;;;0.10;0.10;;;;;;;;;;5058627;28;20203;-70
2021/04/10 05:38:49;;;;;;;0.10;0.10;;;;;;;;;;5053458;28;20228;-71
2021/04/10 05:41:15;;;;;;;0.20;0.20;;;;;;;;;;5059005;28;20436;-71
2021/04/10 05:43:41;;;;;;;0.10;0.10;;;;;;;;;;5060851;28;20224;-71
2021/04/10 05:46:08;;;;;;;0.10;0.10;;;;;;;;;;5061919;28;20281;-70
2021/04/10 05:48:33;;;;;;;0.10;0.10;;;;;;;;;;5066466;28;20402;-70
2021/04/10 05:50:59;;;;;;;0.10;0.10;;;;;;;;;;5066059;28;20219;-69
2021/04/10 05:53:26;;;;;;;0.10;0.10;;;;;;;;;;5063983;28;20227;-71
2021/04/10 05:55:52;;;;;;;0.10;0.10;;;;;;;;;;5063306;28;20509;-69
2021/04/10 05:58:17;;;;;;;0.10;0.10;;;;;;;;;;5066242;28;20219;-69
2021/04/10 06:00:43;;;;;;;0.10;0.10;;;;;;;;;;5062110;28;20208;-70
2021/04/10 06:03:10;;;;;;;0.10;0.10;;;;;;;;;;5057448;28;20223;-71
2021/04/10 06:05:36;;;;;;;0.20;0.20;;;;;;;;;;5065810;28;20219;-70
2021/04/10 06:08:01;;;;;;;0.10;0.10;;;;;;;;;;5062541;28;20231;-69
2021/04/10 06:10:27;;;;;;;0.10;0.10;;;;;;;;;;5060293;28;20203;-71
2021/04/10 06:12:53;;;;;;;0.10;0.10;;;;;;;;;;5052381;28;20235;-70
2021/04/10 06:15:20;;;;;;;0.10;0.10;;;;;;;;;;5065862;28;20520;-70
2021/04/10 06:17:46;;;;;;;0.10;0.10;;;;;;;;;;5062788;28;20329;-69
2021/04/10 06:20:14;;;;;;;0.20;0.20;;;;;;;;;;5063681;28;20261;-69
2021/04/10 06:22:40;;;;;;;0.20;0.20;;;;;;;;;;5052676;28;20247;-70
2021/04/10 06:25:06;;;;;;;0.20;0.20;;;;;;;;;;5061011;28;20521;-69
2021/04/10 06:27:33;;;;;;;0.10;0.10;;;;;;;;;;5047603;28;20243;-69
2021/04/10 06:29:58;;;;;;;0.10;0.10;;;;;;;;;;5051518;28;20434;-70
2021/04/10 06:32:24;;;;;;;0.20;0.20;;;;;;;;;;5058890;28;20202;-71
2021/04/10 06:34:50;;;;;;;0.10;0.10;;;;;;;;;;5064952;28;20211;-69
2021/04/10 06:37:16;;;;;;;0.20;0.20;;;;;;;;;;5058222;28;20486;-69
2021/04/10 06:39:42;;;;;;;0.20;0.20;;;;;;;;;;5065184;28;20254;-69
2021/04/10 06:42:08;;;;;;;0.10;0.10;;;;;;;;;;5060305;28;20228;-70
2021/04/10 06:44:34;;;;;;;0.20;0.20;;;;;;;;;;5051519;28;20257;-70
2021/04/10 06:47:01;;;;;;;0.17;0.17;;;;;;;;;;5058218;28;20201;-69
2021/04/10 06:49:29;;;;;;;0.10;0.10;;;;;;;;;;5064871;28;20225;-70
2021/04/10 06:51:55;;;;;;;0.20;0.20;;;;;;;;;;5062635;28;20215;-70
2021/04/10 06:54:24;;;;;;;0.10;0.10;;;;;;;;;;5065431;28;20204;-69
2021/04/10 06:56:53;;;;;;;0.10;0.10;;;;;;;;;;5065068;28;20204;-69
2021/04/10 06:59:21;;;;;;;0.10;0.10;;;;;;;;;;5045708;28;20227;-69
2021/04/10 07:01:48;;;;;;;0.10;0.10;;;;;;;;;;5058670;28;20213;-68
2021/04/10 07:04:14;;;;;;;0.20;0.20;;;;;;;;;;5050733;28;20203;-69
2021/04/10 07:06:40;;;;;;;0.20;0.20;;;;;;;;;;5054277;28;20211;-68
2021/04/10 07:09:06;;;;;;;0.20;0.20;;;;;;;;;;5062060;28;20203;-71
2021/04/10 07:11:33;;;;;;;0.10;0.10;;;;;;;;;;5058501;28;20222;-70
2021/04/10 07:14:00;;;;;;;0.10;0.10;;;;;;;;;;5060811;28;20244;-70
2021/04/10 07:16:26;;;;;;;0.10;0.10;;;;;;;;;;5061196;28;20211;-69
2021/04/10 07:18:55;;;;;;;0.10;0.10;;;;;;;;;;5064469;28;20246;-70
2021/04/10 07:21:21;;;;;;;0.10;0.10;;;;;;;;;;5049694;28;20283;-70
2021/04/10 07:23:48;;;;;;;0.10;0.10;;;;;;;;;;5056344;28;20232;-70
2021/04/10 07:26:15;;;;;;;0.20;0.20;;;;;;;;;;5059840;28;20210;-68
2021/04/10 07:28:41;;;;;;;0.10;0.10;;;;;;;;;;5046948;28;20207;-69
2021/04/10 07:31:07;;;;;;;0.20;0.20;;;;;;;;;;5049668;28;20212;-69
2021/04/10 07:33:34;;;;;;;0.20;0.20;;;;;;;;;;5064324;28;20208;-69
2021/04/10 07:36:01;;;;;;;0.10;0.10;;;;;;;;;;5056004;28;20201;-69
2021/04/10 07:38:28;;;;;;;0.20;0.20;;;;;;;;;;5061455;28;20231;-70
2021/04/10 07:40:54;;;;;;;0.10;0.10;;;;;;;;;;5053336;28;20212;-69
2021/04/10 07:43:23;;;;;;;0.17;0.17;;;;;;;;;;5064167;28;20266;-70
2021/04/10 07:45:50;;;;;;;0.10;0.10;;;;;;;;;;5060543;28;20206;-69
2021/04/10 07:48:18;;;;;;;0.10;0.10;;;;;;;;;;5064314;28;20282;-70
2021/04/10 07:50:44;;;;;;;0.10;0.10;;;;;;;;;;5058693;28;20211;-69
2021/04/10 07:53:18;;;;;;;0.20;0.20;;;;;;;;;;5064012;28;20246;-69
2021/04/10 07:55:44;;;;;;;0.10;0.10;;;;;;;;;;5063666;28;20508;-69
2021/04/10 07:58:23;;;;;;;0.20;0.20;;;;;;;;;;5064157;28;20204;-69
2021/04/10 08:00:50;;;;;;;0.20;0.20;;;;;;;;;;5047718;28;20219;-71
2021/04/10 08:03:22;;;;;;;0.10;0.10;;;;;;;;;;5064126;28;20211;-71
2021/04/10 08:05:48;;;;;;;0.20;0.20;;;;;;;;;;5047419;28;20204;-69
2021/04/10 08:08:17;;;;;;;0.20;0.20;;;;;;;;;;5057597;28;20206;-69
2021/04/10 08:10:44;;;;;;;0.10;0.10;;;;;;;;;;5055432;28;20214;-69
2021/04/10 08:13:10;;;;;;;0.20;0.20;;;;;;;;;;5060115;28;20208;-70
2021/04/10 08:15:35;;;;;;;0.20;0.20;;;;;;;;;;5063910;28;20204;-69
2021/04/10 08:18:20;;;;;;;0.10;0.10;;;;;;;;;;5059098;28;20228;-70
2021/04/10 08:20:48;;;;;;;0.10;0.10;;;;;;;;;;5053953;28;20199;-69
2021/04/10 08:23:17;;;;;;;0.10;0.10;;;;;;;;;;5055444;28;20280;-69
2021/04/10 08:25:43;;;;;;;0.10;0.10;;;;;;;;;;5059906;28;20216;-69
2021/04/10 08:28:09;;;;;;;0.10;0.10;;;;;;;;;;5056568;28;20238;-70
2021/04/10 08:30:35;;;;;;;0.10;0.10;;;;;;;;;;5056304;28;20470;-69
2021/04/10 08:33:01;;;;;;;0.10;0.10;;;;;;;;;;5055255;28;20205;-69
2021/04/10 08:35:27;;;;;;;0.20;0.20;;;;;;;;;;5055926;28;20430;-69
2021/04/10 08:37:57;;;;;;;0.10;0.10;;;;;;;;;;5058166;28;20205;-69
2021/04/10 08:40:23;;;;;;;0.10;0.10;;;;;;;;;;5055413;28;20314;-69
2021/04/10 08:42:49;;;;;;;0.13;0.13;;;;;;;;;;5058039;28;20202;-69
2021/04/10 08:45:15;;;;;;;0.10;0.10;;;;;;;;;;5060168;28;20512;-69
2021/04/10 08:47:41;;;;;;;0.20;0.20;;;;;;;;;;5062767;28;20211;-71
2021/04/10 08:50:10;;;;;;;0.10;0.10;;;;;;;;;;5057901;28;20242;-69
2021/04/10 08:52:37;;;;;;;0.10;0.10;;;;;;;;;;5055000;28;20288;-69
2021/04/10 08:55:03;;;;;;;0.10;0.10;;;;;;;;;;5062753;28;20299;-70
2021/04/10 08:57:36;;;;;;;0.20;0.20;;;;;;;;;;5062929;28;20211;-68
2021/04/10 09:00:16;;;;;;;0.10;0.10;;;;;;;;;;5063347;28;20226;-69
2021/04/10 09:02:48;;;;;;;0.10;0.10;;;;;;;;;;5051975;28;20204;-69
2021/04/10 09:05:14;;;;;;;0.10;0.10;;;;;;;;;;5063110;28;20367;-70
2021/04/10 09:08:04;;;;;;;0.10;0.10;;;;;;;;;;5062811;28;20208;-71
2021/04/10 09:10:43;;;;;;;0.10;0.10;;;;;;;;;;5063057;28;20196;-69
2021/04/10 09:13:25;;;;;;;0.17;0.17;;;;;;;;;;5059332;28;20204;-71
2021/04/10 09:16:16;;;;;;;0.10;0.10;;;;;;;;;;5063411;28;20401;-65
2021/04/10 09:18:49;;;;;;;0.20;0.20;;;;;;;;;;5062815;28;20232;-73
2021/04/10 09:21:15;;;;;;;0.10;0.10;;;;;;;;;;5061894;28;20204;-73
2021/04/10 09:23:47;;;;;;;0.10;0.10;;;;;;;;;;5052032;28;20561;-73
2021/04/10 09:26:14;;;;;;;0.10;0.10;;;;;;;;;;5062843;28;20213;-71
2021/04/10 09:28:55;;;;;;;0.10;0.10;;;;;;;;;;5062476;28;20231;-72
2021/04/10 09:31:35;;;;;;;0.20;0.20;;;;;;;;;;5063102;28;20212;-71
2021/04/10 09:34:01;;;;;;;0.10;0.10;;;;;;;;;;5063721;28;20395;-71
2021/04/10 09:36:41;;;;;;;0.10;0.10;;;;;;;;;;5063298;28;20204;-70
2021/04/10 09:39:07;;;;;;;0.20;0.20;;;;;;;;;;5049080;28;20221;-70
2021/04/10 09:44:26;;;;;;;0.10;0.10;;;;;;;;;;5120001;27;20524;-72
2021/04/10 09:46:53;;;;;;;0.10;0.10;;;;;;;;;;5099048;28;20208;-71
2021/04/10 09:49:43;;;;;;;0.10;0.10;;;;;;;;;;5096787;28;20215;-71
2021/04/10 09:52:14;;;;;;;0.10;0.10;;;;;;;;;;5095314;28;20205;-72
2021/04/10 09:54:42;;;;;;;0.10;0.10;;;;;;;;;;5101087;28;20495;-72
2021/04/10 09:57:15;;;;;;;0.10;0.10;;;;;;;;;;5100762;28;20203;-73
2021/04/10 09:59:43;;;;;;;0.10;0.10;;;;;;;;;;5101206;28;20367;-71
2021/04/10 10:02:09;;;;;;;0.10;0.10;;;;;;;;;;5097918;28;20208;-72
2021/04/10 10:04:35;;;;;;;0.10;0.10;;;;;;;;;;5100197;28;20276;-73
2021/04/10 10:07:01;;;;;;;0.10;0.10;;;;;;;;;;5100138;28;20199;-72
2021/04/10 10:09:27;;;;;;;0.10;0.10;;;;;;;;;;5100705;28;20243;-72
2021/04/10 10:11:54;;;;;;;0.10;0.10;;;;;;;;;;5100670;28;20200;-71
2021/04/10 10:14:20;;;;;;;0.10;0.10;;;;;;;;;;5099940;28;20235;-73
2021/04/10 10:16:47;;;;;;;0.10;0.10;;;;;;;;;;5099188;28;20217;-72
2021/04/10 10:19:19;;;;;;;0.10;0.10;;;;;;;;;;5099976;28;20222;-71
2021/04/10 10:21:45;;;;;;;0.10;0.10;;;;;;;;;;5098252;28;20195;-69
2021/04/10 10:24:11;;;;;;;0.10;0.10;;;;;;;;;;5099392;28;20240;-73
2021/04/10 10:26:39;;;;;;;0.10;0.10;;;;;;;;;;5099637;28;20484;-71
2021/04/10 10:29:06;;;;;;;0.10;0.10;;;;;;;;;;5097098;28;20201;-73
2021/04/10 10:31:33;;;;;;;0.10;0.10;;;;;;;;;;5099051;28;20203;-70
2021/04/10 10:34:06;;;;;;;0.10;0.10;;;;;;;;;;5099507;28;20246;-73
2021/04/10 10:36:33;;;;;;;0.10;0.10;;;;;;;;;;5099810;28;20496;-71
2021/04/10 10:38:59;;;;;;;0.10;0.10;;;;;;;;;;5099423;28;20204;-73
2021/04/10 10:41:24;;;;;;;0.10;0.10;;;;;;;;;;5099330;28;20246;-73
2021/04/10 10:43:50;;;;;;;0.10;0.10;;;;;;;;;;5099033;28;20227;-72
2021/04/10 10:46:19;;;;;;;0.10;0.10;;;;;;;;;;5098772;28;20212;-73
2021/04/10 10:48:46;;;;;;;0.10;0.10;;;;;;;;;;5099311;28;20212;-71
2021/04/10 10:51:13;;;;;;;0.10;0.10;;;;;;;;;;5099325;28;20206;-73
2021/04/10 10:53:43;;;;;;;0.10;0.10;;;;;;;;;;5096357;28;20208;-73
2021/04/10 10:56:10;;;;;;;0.10;0.10;;;;;;;;;;5083029;28;20202;-71
2021/04/10 10:58:37;;;;;;;0.10;0.10;;;;;;;;;;5079303;28;20207;-71
2021/04/10 11:01:10;;;;;;;0.20;0.20;;;;;;;;;;5085762;28;20501;-73
2021/04/10 11:03:36;;;;;;;0.10;0.10;;;;;;;;;;5086042;28;20240;-71
2021/04/10 11:06:02;;;;;;;0.10;0.10;;;;;;;;;;5085683;28;20212;-70
2021/04/10 11:08:29;;;;;;;0.10;0.10;;;;;;;;;;5074745;28;20205;-72
2021/04/10 11:10:55;;;;;;;0.10;0.10;;;;;;;;;;5084398;28;20245;-70
2021/04/10 11:13:23;;;;;;;0.10;0.10;;;;;;;;;;5086157;28;20241;-70
2021/04/10 11:15:49;;;;;;;0.10;0.10;;;;;;;;;;5085903;28;20205;-71
2021/04/10 11:18:25;;;;;;;0.10;0.10;;;;;;;;;;5086192;28;20273;-73
2021/04/10 11:20:51;;;;;;;0.10;0.10;;;;;;;;;;5086045;28;20342;-69
2021/04/10 11:23:17;;;;;;;0.10;0.10;;;;;;;;;;5085523;28;20327;-70
2021/04/10 11:25:47;;;;;;;0.10;0.10;;;;;;;;;;5085410;28;20204;-70
2021/04/10 11:28:26;;;;;;;0.10;0.10;;;;;;;;;;5085206;28;20232;-70
2021/04/10 11:31:01;;;;;;;0.10;0.10;;;;;;;;;;5084549;28;20201;-72
2021/04/10 11:33:34;;;;;;;0.10;0.10;;;;;;;;;;5085193;28;20202;-75
2021/04/10 11:35:59;;;;;;;0.10;0.10;;;;;;;;;;5083900;28;20217;-76
2021/04/10 11:38:25;;;;;;;0.10;0.10;;;;;;;;;;5087718;28;20234;-75
2021/04/10 11:40:52;;;;;;;0.10;0.10;;;;;;;;;;5086638;28;20512;-78
2021/04/10 11:43:17;;;;;;;0.10;0.10;;;;;;;;;;5084460;28;20279;-70
2021/04/10 11:45:44;;;;;;;0.10;0.10;;;;;;;;;;5084774;28;20205;-70
2021/04/10 11:48:12;;;;;;;0.10;0.10;;;;;;;;;;5085123;28;20801;-71
2021/04/10 11:50:39;;;;;;;0.10;0.10;;;;;;;;;;5081272;28;20309;-70
2021/04/10 11:53:11;;;;;;;0.10;0.10;;;;;;;;;;5085088;28;20535;-71
2021/04/10 11:55:37;;;;;;;0.10;0.10;;;;;;;;;;5085070;28;20382;-71
2021/04/10 11:58:03;;;;;;;0.10;0.10;;;;;;;;;;5084644;28;20200;-72
2021/04/10 12:00:29;;;;;;;0.10;0.10;;;;;;;;;;5079761;28;20279;-71
2021/04/10 12:03:05;;;;;;;0.10;0.10;;;;;;;;;;5084611;28;20491;-72
2021/04/10 12:05:35;;;;;;;0.10;0.10;;;;;;;;;;5084767;28;20230;-77
2021/04/10 12:08:04;;;;;;;0.10;0.10;;;;;;;;;;5085349;28;20202;-77
2021/04/10 12:10:30;;;;;;;0.10;0.10;;;;;;;;;;5085777;28;20348;-75
2021/04/10 12:12:56;;;;;;;0.10;0.10;;;;;;;;;;5082414;28;20206;-72
2021/04/10 12:15:25;;;;;;;0.10;0.10;;;;;;;;;;5084477;28;20333;-75
2021/04/10 12:17:51;;;;;;;0.10;0.10;;;;;;;;;;5084573;28;20330;-75
2021/04/10 12:20:17;;;;;;;0.13;0.13;;;;;;;;;;5084560;28;20220;-74
2021/04/10 12:22:42;;;;;;;0.10;0.10;;;;;;;;;;5085586;28;20550;-77
2021/04/10 12:25:09;;;;;;;0.10;0.10;;;;;;;;;;5081584;28;20419;-77
2021/04/10 12:27:34;;;;;;;0.10;0.10;;;;;;;;;;5081682;28;20208;-74
2021/04/10 12:30:00;;;;;;;0.10;0.10;;;;;;;;;;5083292;28;20204;-75
2021/04/10 12:32:27;;;;;;;0.10;0.10;;;;;;;;;;5081272;28;20481;-72
2021/04/10 12:34:52;;;;;;;0.10;0.10;;;;;;;;;;5084096;28;20214;-76
2021/04/10 12:37:18;;;;;;;0.10;0.10;;;;;;;;;;5084088;28;20372;-73
2021/04/10 12:39:44;;;;;;;0.10;0.10;;;;;;;;;;5083874;28;20495;-76
2021/04/10 12:42:10;;;;;;;0.10;0.10;;;;;;;;;;5084185;28;20227;-73
2021/04/10 12:44:35;;;;;;;0.10;0.10;;;;;;;;;;5083935;28;20212;-75
2021/04/10 12:47:01;;;;;;;0.10;0.10;;;;;;;;;;5083727;28;20212;-73
2021/04/10 12:49:28;;;;;;;0.10;0.10;;;;;;;;;;5083190;28;20528;-73
2021/04/10 12:51:53;;;;;;;0.10;0.10;;;;;;;;;;5081029;28;20247;-74
2021/04/10 12:54:19;;;;;;;0.10;0.10;;;;;;;;;;5083817;28;20200;-72
2021/04/10 12:56:45;;;;;;;0.10;0.10;;;;;;;;;;5081834;28;20265;-71
2021/04/10 12:59:11;;;;;;;0.13;0.13;;;;;;;;;;5082277;28;20205;-72
2021/04/10 13:01:36;;;;;;;0.10;0.10;;;;;;;;;;5088354;28;20208;-73
2021/04/10 13:04:02;;;;;;;0.10;0.10;;;;;;;;;;5083463;28;20408;-75
2021/04/10 13:06:29;;;;;;;0.10;0.10;;;;;;;;;;5083174;28;20221;-74
2021/04/10 13:08:54;;;;;;;0.10;0.10;;;;;;;;;;5077143;28;20438;-70
2021/04/10 13:11:20;;;;;;;0.10;0.10;;;;;;;;;;5076352;28;20204;-76
2021/04/10 13:13:46;;;;;;;0.10;0.10;;;;;;;;;;5077417;28;20216;-69
2021/04/10 13:16:12;;;;;;;0.10;0.10;;;;;;;;;;5074582;28;20211;-74
2021/04/10 13:18:37;;;;;;;0.10;0.10;;;;;;;;;;5075752;28;20244;-77
2021/04/10 13:21:03;;;;;;;0.10;0.10;;;;;;;;;;5078643;28;20250;-74
2021/04/10 13:23:30;;;;;;;0.10;0.10;;;;;;;;;;5075782;28;20228;-76
2021/04/10 13:25:56;;;;;;;0.10;0.10;;;;;;;;;;5079726;28;20201;-77
2021/04/10 13:28:21;;;;;;;0.10;0.10;;;;;;;;;;5075843;28;20213;-77
2021/04/10 13:30:47;;;;;;;0.10;0.10;;;;;;;;;;5076535;28;20200;-76
2021/04/10 13:33:13;;;;;;;0.10;0.10;;;;;;;;;;5077384;28;20207;-75
2021/04/10 13:35:39;;;;;;;0.10;0.10;;;;;;;;;;5080696;28;20211;-73
2021/04/10 13:38:04;;;;;;;0.10;0.10;;;;;;;;;;5077833;28;20976;-75
2021/04/10 13:40:31;;;;;;;0.10;0.10;;;;;;;;;;5077251;28;20225;-75
2021/04/10 13:42:57;;;;;;;0.10;0.10;;;;;;;;;;5074345;28;20230;-76
2021/04/10 13:45:22;;;;;;;0.10;0.10;;;;;;;;;;5077469;28;20510;-76
2021/04/10 13:47:48;;;;;;;0.10;0.10;;;;;;;;;;5079051;28;20226;-75
2021/04/10 13:50:14;;;;;;;0.13;0.13;;;;;;;;;;5075383;28;20211;-76
2021/04/10 13:52:40;;;;;;;0.10;0.10;;;;;;;;;;5075169;28;20269;-77
2021/04/10 13:55:07;;;;;;;0.10;0.10;;;;;;;;;;5076452;28;20518;-75
2021/04/10 13:57:33;;;;;;;0.13;0.13;;;;;;;;;;5079276;28;20210;-75
2021/04/10 13:59:59;;;;;;;0.10;0.10;;;;;;;;;;5074686;28;20205;-76
2021/04/10 14:02:25;;;;;;;0.10;0.10;;;;;;;;;;5075085;28;20338;-75
2021/04/10 14:05:03;;;;;;;0.10;0.10;;;;;;;;;;5073735;28;20210;-76
2021/04/10 14:07:30;;;;;;;0.10;0.10;;;;;;;;;;5076949;28;20260;-74
2021/04/10 14:09:56;;;;;;;0.10;0.10;;;;;;;;;;5075487;28;20208;-75
2021/04/10 14:12:22;;;;;;;0.10;0.10;;;;;;;;;;5077176;28;20206;-74
2021/04/10 14:14:48;;;;;;;0.10;0.10;;;;;;;;;;5077562;28;20215;-75
2021/04/10 14:17:14;;;;;;;0.10;0.10;;;;;;;;;;5077591;28;20396;-72
2021/04/10 14:19:39;;;;;;;0.10;0.10;;;;;;;;;;5075264;28;20510;-76
2021/04/10 14:22:08;;;;;;;0.10;0.10;;;;;;;;;;5074813;28;20254;-74
2021/04/10 14:24:33;;;;;;;0.10;0.10;;;;;;;;;;5077252;28;20228;-75
2021/04/10 14:26:59;;;;;;;0.10;0.10;;;;;;;;;;5079208;28;20214;-75
2021/04/10 14:29:25;;;;;;;0.10;0.10;;;;;;;;;;5072416;28;20203;-74
2021/04/10 14:31:51;;;;;;;0.10;0.10;;;;;;;;;;5082264;28;20229;-74
2021/04/10 14:34:17;;;;;;;0.10;0.10;;;;;;;;;;5079876;28;20213;-72
2021/04/10 14:36:43;;;;;;;0.10;0.10;;;;;;;;;;5077579;28;20420;-73
2021/04/10 14:39:10;;;;;;;0.10;0.10;;;;;;;;;;5082567;28;20201;-73
2021/04/10 14:41:36;;;;;;;0.10;0.10;;;;;;;;;;5073340;28;20408;-74
2021/04/10 14:44:01;;;;;;;0.10;0.10;;;;;;;;;;5073865;28;20237;-75
2021/04/10 14:46:28;;;;;;;0.10;0.10;;;;;;;;;;5078234;28;20231;-75